Enochs, TX (79324)

9:26 AM CDT on July 11, 2014 (GMT -0500)
Clovis Municipal (KCVN) Elev 4216 ft | 34.43 °N, 103.08 °W | Change Station

Current weather conditions updated 1 hour ago

Clear
Clear
66 °F
Feels Like 66 °F
N
9
Wind Variable Wind from SSW

Today is forecast to be nearly the same temperature as yesterday.

Today
High -- | Low -- °F
--% Chance of Precip.
Yesterday
High -- | Low -- °F
Precip. -- in
6:48 AM 9:04 PM
Waxing Gibbous, 99% visible
Pressure 30.20 in
Visibility 10.0 miles
Clouds Clear
Dew Point 57 °F
Humidity 73%
Rainfall 0.00 in
Snow Depth Not available.
UV 1 out of 12
Pollen 3.20 out of 12
Air Quality Not available.
Flu Activity Sporadic
METAR KCVN 111315Z AUTO 21008KT 10SM CLR 19/14 A3020 RMK AO1

More Conditions Fewer Conditions

Pressure 30.20 in
Visibility 10.0 miles
Clouds Clear
Dew Point 57 °F
Humidity 73%
Rainfall 0.00 in
Snow Depth Not available.
UV 1 out of 12
Pollen 3.20 out of 12
Air Quality Not available.
Flu Activity Sporadic
METAR KCVN 111315Z AUTO 21008KT 10SM CLR 19/14 A3020 RMK AO1

More Conditions Fewer Conditions

10-Day Weather Forecast

Almanac

Astronomy

Jul. 11, 2014 Rise Set
Actual Time 6:48 AM CDT 9:04 PM CDT
Civil Twilight 6:20 AM CDT 9:32 PM CDT
Nautical Twilight 5:45 AM CDT 10:07 PM CDT
Astronomical Twilight 5:07 AM CDT 10:45 PM CDT
Moon 8:19 PM CDT 6:00 AM CDT
Length of Visible Light 15h 12m
Length of Day
14h 15m
Tomorrow will be 0m 55s shorter.
Waxing Gibbous, 99% of the Moon is Illuminated
Today
Waxing Gibbous
Jul 12
Full
Jul 18
Last Quarter
Jul 26
New
Aug 3
First Quarter

Today's Extremes

State Highs State Lows

Community

WunderPhotos

Upload Photos

1,732,483 photos uploaded!

Nearby

Snow Depth

Station Depth Elevation
No new snow has been reported.

Earthquake Activity

City Distance Mag. Time & Date
No recent earthquake activity has been reported nearby.
Minimum magnitude displayed is 2.5.

Coastal Water Temperatures

Place Temperature
No Stations Reporting

Nearby Weather Stations

Station Location Temp. Dew Point Humidity Wind Precip. Elev Updated Type
WT_Meso Morton 1NE, Morton, TX 70 °F 60 °F 72% SSW  at  11 mph 0.00 in / hr 3753 ft 8:25 AM CDT MADIS
WT_Meso Amherst 1NE, Amherst, TX 70 °F 59 °F 72% SSW  at  6 mph 0.00 in / hr 3646 ft 8:25 AM CDT MADIS
WT_Meso Muleshoe 2S, Muleshoe, TX 69 °F 58 °F 69% SW  at  5 mph 0.00 in / hr 3806 ft 8:25 AM CDT MADIS

Show More Stations Show Fewer Stations